sensor_id;sensor_type;location;lat;lon;timestamp;temperature;humidity
51801;DHT22;37855;53.204;6.568;2023-05-07T00:01:46;12.00;79.50
51801;DHT22;37855;53.204;6.568;2023-05-07T00:04:12;12.10;79.20
51801;DHT22;37855;53.204;6.568;2023-05-07T00:06:39;12.00;79.50
51801;DHT22;37855;53.204;6.568;2023-05-07T00:09:05;12.00;79.60
51801;DHT22;37855;53.204;6.568;2023-05-07T00:11:31;11.90;79.80
51801;DHT22;37855;53.204;6.568;2023-05-07T00:13:56;11.80;79.80
51801;DHT22;37855;53.204;6.568;2023-05-07T00:16:22;11.80;80.20
51801;DHT22;37855;53.204;6.568;2023-05-07T00:18:48;11.80;80.10
51801;DHT22;37855;53.204;6.568;2023-05-07T00:21:13;11.80;80.20
51801;DHT22;37855;53.204;6.568;2023-05-07T00:23:39;11.80;80.00
51801;DHT22;37855;53.204;6.568;2023-05-07T00:26:05;11.90;79.90
51801;DHT22;37855;53.204;6.568;2023-05-07T00:28:30;11.80;80.10
51801;DHT22;37855;53.204;6.568;2023-05-07T00:30:56;11.90;79.80
51801;DHT22;37855;53.204;6.568;2023-05-07T00:33:22;11.90;79.60
51801;DHT22;37855;53.204;6.568;2023-05-07T00:35:48;11.90;79.60
51801;DHT22;37855;53.204;6.568;2023-05-07T00:38:14;11.90;79.60
51801;DHT22;37855;53.204;6.568;2023-05-07T00:40:39;11.90;79.60
51801;DHT22;37855;53.204;6.568;2023-05-07T00:43:05;11.80;80.10
51801;DHT22;37855;53.204;6.568;2023-05-07T00:45:33;11.80;79.90
51801;DHT22;37855;53.204;6.568;2023-05-07T00:48:02;11.80;80.00
51801;DHT22;37855;53.204;6.568;2023-05-07T00:50:29;11.80;79.90
51801;DHT22;37855;53.204;6.568;2023-05-07T00:52:55;11.90;79.70
51801;DHT22;37855;53.204;6.568;2023-05-07T00:55:22;11.80;80.10
51801;DHT22;37855;53.204;6.568;2023-05-07T00:57:49;11.80;79.70
51801;DHT22;37855;53.204;6.568;2023-05-07T01:00:16;11.90;79.70
51801;DHT22;37855;53.204;6.568;2023-05-07T01:02:42;11.90;79.60
51801;DHT22;37855;53.204;6.568;2023-05-07T01:05:10;11.90;79.50
51801;DHT22;37855;53.204;6.568;2023-05-07T01:07:37;12.00;79.50
51801;DHT22;37855;53.204;6.568;2023-05-07T01:10:05;12.00;79.40
51801;DHT22;37855;53.204;6.568;2023-05-07T01:12:32;12.00;79.40
51801;DHT22;37855;53.204;6.568;2023-05-07T01:14:58;12.10;79.30
51801;DHT22;37855;53.204;6.568;2023-05-07T01:17:24;12.00;79.30
51801;DHT22;37855;53.204;6.568;2023-05-07T01:19:50;12.00;79.20
51801;DHT22;37855;53.204;6.568;2023-05-07T01:22:51;12.00;79.30
51801;DHT22;37855;53.204;6.568;2023-05-07T01:25:10;12.00;79.20
51801;DHT22;37855;53.204;6.568;2023-05-07T01:27:36;12.00;79.30
51801;DHT22;37855;53.204;6.568;2023-05-07T01:30:06;12.00;79.20
51801;DHT22;37855;53.204;6.568;2023-05-07T01:32:53;12.00;79.20
51801;DHT22;37855;53.204;6.568;2023-05-07T01:35:24;12.00;79.10
51801;DHT22;37855;53.204;6.568;2023-05-07T01:37:52;12.00;79.10
51801;DHT22;37855;53.204;6.568;2023-05-07T01:40:18;11.90;79.10
51801;DHT22;37855;53.204;6.568;2023-05-07T01:42:44;11.80;79.40
51801;DHT22;37855;53.204;6.568;2023-05-07T01:45:11;11.80;79.20
51801;DHT22;37855;53.204;6.568;2023-05-07T01:47:37;11.80;79.20
51801;DHT22;37855;53.204;6.568;2023-05-07T01:50:05;11.80;79.20
51801;DHT22;37855;53.204;6.568;2023-05-07T01:52:31;11.80;79.30
51801;DHT22;37855;53.204;6.568;2023-05-07T01:54:57;11.80;79.20
51801;DHT22;37855;53.204;6.568;2023-05-07T01:57:23;11.80;79.20
51801;DHT22;37855;53.204;6.568;2023-05-07T01:59:48;11.80;79.30
51801;DHT22;37855;53.204;6.568;2023-05-07T02:02:14;11.80;79.40
51801;DHT22;37855;53.204;6.568;2023-05-07T02:04:41;11.80;79.30
51801;DHT22;37855;53.204;6.568;2023-05-07T02:07:07;11.80;79.30
51801;DHT22;37855;53.204;6.568;2023-05-07T02:09:32;11.70;79.40
51801;DHT22;37855;53.204;6.568;2023-05-07T02:11:58;11.70;79.60
51801;DHT22;37855;53.204;6.568;2023-05-07T02:14:24;11.60;79.50
51801;DHT22;37855;53.204;6.568;2023-05-07T02:16:51;11.60;79.40
51801;DHT22;37855;53.204;6.568;2023-05-07T02:19:17;11.70;79.30
51801;DHT22;37855;53.204;6.568;2023-05-07T02:21:46;11.70;79.30
51801;DHT22;37855;53.204;6.568;2023-05-07T02:24:12;11.60;79.50
51801;DHT22;37855;53.204;6.568;2023-05-07T02:26:42;11.60;79.50
51801;DHT22;37855;53.204;6.568;2023-05-07T02:29:08;11.50;79.60
51801;DHT22;37855;53.204;6.568;2023-05-07T02:31:34;11.40;80.30
51801;DHT22;37855;53.204;6.568;2023-05-07T02:34:00;11.40;80.20
51801;DHT22;37855;53.204;6.568;2023-05-07T02:36:26;11.40;80.00
51801;DHT22;37855;53.204;6.568;2023-05-07T02:38:54;11.40;80.00
51801;DHT22;37855;53.204;6.568;2023-05-07T02:41:20;11.40;79.80
51801;DHT22;37855;53.204;6.568;2023-05-07T02:43:46;11.50;79.80
51801;DHT22;37855;53.204;6.568;2023-05-07T02:46:12;11.50;79.80
51801;DHT22;37855;53.204;6.568;2023-05-07T02:48:38;11.50;79.80
51801;DHT22;37855;53.204;6.568;2023-05-07T02:51:04;11.50;79.80
51801;DHT22;37855;53.204;6.568;2023-05-07T02:53:30;11.50;79.90
51801;DHT22;37855;53.204;6.568;2023-05-07T02:55:57;11.50;79.80
51801;DHT22;37855;53.204;6.568;2023-05-07T02:58:23;11.60;79.70
51801;DHT22;37855;53.204;6.568;2023-05-07T03:00:49;11.60;79.70
51801;DHT22;37855;53.204;6.568;2023-05-07T03:03:15;11.60;79.70
51801;DHT22;37855;53.204;6.568;2023-05-07T03:05:41;11.60;79.60
51801;DHT22;37855;53.204;6.568;2023-05-07T03:08:07;11.50;79.60
51801;DHT22;37855;53.204;6.568;2023-05-07T03:10:33;11.50;79.60
51801;DHT22;37855;53.204;6.568;2023-05-07T03:12:59;11.50;79.60
51801;DHT22;37855;53.204;6.568;2023-05-07T03:15:25;11.50;79.60
51801;DHT22;37855;53.204;6.568;2023-05-07T03:17:50;11.40;79.90
51801;DHT22;37855;53.204;6.568;2023-05-07T03:20:16;11.40;79.60
51801;DHT22;37855;53.204;6.568;2023-05-07T03:22:42;11.40;79.70
51801;DHT22;37855;53.204;6.568;2023-05-07T03:25:08;11.40;79.80
51801;DHT22;37855;53.204;6.568;2023-05-07T03:27:34;11.40;79.70
51801;DHT22;37855;53.204;6.568;2023-05-07T03:30:00;11.40;79.70
51801;DHT22;37855;53.204;6.568;2023-05-07T03:32:26;11.30;80.00
51801;DHT22;37855;53.204;6.568;2023-05-07T03:34:52;11.30;79.80
51801;DHT22;37855;53.204;6.568;2023-05-07T03:37:18;11.30;79.90
51801;DHT22;37855;53.204;6.568;2023-05-07T03:39:47;11.20;79.90
51801;DHT22;37855;53.204;6.568;2023-05-07T03:42:12;11.20;80.00
51801;DHT22;37855;53.204;6.568;2023-05-07T03:44:38;11.20;79.90
51801;DHT22;37855;53.204;6.568;2023-05-07T03:47:04;11.20;80.00
51801;DHT22;37855;53.204;6.568;2023-05-07T03:49:30;11.00;80.30
51801;DHT22;37855;53.204;6.568;2023-05-07T03:51:57;11.00;80.20
51801;DHT22;37855;53.204;6.568;2023-05-07T03:54:22;11.00;80.10
51801;DHT22;37855;53.204;6.568;2023-05-07T03:56:48;11.10;80.00
51801;DHT22;37855;53.204;6.568;2023-05-07T03:59:14;11.10;79.90
51801;DHT22;37855;53.204;6.568;2023-05-07T04:01:39;11.10;79.80
51801;DHT22;37855;53.204;6.568;2023-05-07T04:04:05;11.10;79.60
51801;DHT22;37855;53.204;6.568;2023-05-07T04:06:31;11.10;79.60
51801;DHT22;37855;53.204;6.568;2023-05-07T04:08:57;11.10;79.60
51801;DHT22;37855;53.204;6.568;2023-05-07T04:11:23;11.20;79.60
51801;DHT22;37855;53.204;6.568;2023-05-07T04:13:49;11.20;79.60
51801;DHT22;37855;53.204;6.568;2023-05-07T04:16:15;11.20;79.60
51801;DHT22;37855;53.204;6.568;2023-05-07T04:18:41;11.30;79.60
51801;DHT22;37855;53.204;6.568;2023-05-07T04:21:14;11.30;79.50
51801;DHT22;37855;53.204;6.568;2023-05-07T04:23:40;11.30;79.40
51801;DHT22;37855;53.204;6.568;2023-05-07T04:26:06;11.30;79.30
51801;DHT22;37855;53.204;6.568;2023-05-07T04:28:32;11.30;79.40
51801;DHT22;37855;53.204;6.568;2023-05-07T04:31:00;11.30;79.40
51801;DHT22;37855;53.204;6.568;2023-05-07T04:33:26;11.30;79.40
51801;DHT22;37855;53.204;6.568;2023-05-07T04:35:52;11.20;79.30
51801;DHT22;37855;53.204;6.568;2023-05-07T04:38:17;11.30;79.30
51801;DHT22;37855;53.204;6.568;2023-05-07T04:40:44;11.20;79.30
51801;DHT22;37855;53.204;6.568;2023-05-07T04:43:09;11.20;79.10
51801;DHT22;37855;53.204;6.568;2023-05-07T04:45:36;11.20;79.20
51801;DHT22;37855;53.204;6.568;2023-05-07T04:48:02;11.20;79.00
51801;DHT22;37855;53.204;6.568;2023-05-07T04:50:28;11.20;79.00
51801;DHT22;37855;53.204;6.568;2023-05-07T04:52:53;11.20;78.90
51801;DHT22;37855;53.204;6.568;2023-05-07T04:55:19;11.20;78.80
51801;DHT22;37855;53.204;6.568;2023-05-07T04:57:45;11.20;78.70
51801;DHT22;37855;53.204;6.568;2023-05-07T05:00:11;11.20;78.80
51801;DHT22;37855;53.204;6.568;2023-05-07T05:02:40;11.20;78.70
51801;DHT22;37855;53.204;6.568;2023-05-07T05:05:06;11.30;78.70
51801;DHT22;37855;53.204;6.568;2023-05-07T05:07:32;11.30;78.50
51801;DHT22;37855;53.204;6.568;2023-05-07T05:09:58;11.20;78.20
51801;DHT22;37855;53.204;6.568;2023-05-07T05:12:24;11.10;78.60
51801;DHT22;37855;53.204;6.568;2023-05-07T05:14:49;11.10;78.50
51801;DHT22;37855;53.204;6.568;2023-05-07T05:17:15;11.00;78.80
51801;DHT22;37855;53.204;6.568;2023-05-07T05:19:41;11.00;78.70
51801;DHT22;37855;53.204;6.568;2023-05-07T05:22:06;11.10;78.80
51801;DHT22;37855;53.204;6.568;2023-05-07T05:24:32;11.10;78.80
51801;DHT22;37855;53.204;6.568;2023-05-07T05:26:58;11.10;78.70
51801;DHT22;37855;53.204;6.568;2023-05-07T05:29:26;11.10;78.70
51801;DHT22;37855;53.204;6.568;2023-05-07T05:31:52;11.10;78.70
51801;DHT22;37855;53.204;6.568;2023-05-07T05:34:17;11.20;78.60
51801;DHT22;37855;53.204;6.568;2023-05-07T05:36:45;11.20;78.60
51801;DHT22;37855;53.204;6.568;2023-05-07T05:39:10;11.20;78.50
51801;DHT22;37855;53.204;6.568;2023-05-07T05:41:36;11.20;78.50
51801;DHT22;37855;53.204;6.568;2023-05-07T05:44:02;11.20;78.50
51801;DHT22;37855;53.204;6.568;2023-05-07T05:46:27;11.20;78.40
51801;DHT22;37855;53.204;6.568;2023-05-07T05:48:53;11.20;78.40
51801;DHT22;37855;53.204;6.568;2023-05-07T05:51:20;11.20;78.30
51801;DHT22;37855;53.204;6.568;2023-05-07T05:53:46;11.20;78.30
51801;DHT22;37855;53.204;6.568;2023-05-07T05:56:11;11.20;78.30
51801;DHT22;37855;53.204;6.568;2023-05-07T05:58:37;11.20;78.10
51801;DHT22;37855;53.204;6.568;2023-05-07T06:01:03;11.20;78.30
51801;DHT22;37855;53.204;6.568;2023-05-07T06:03:29;11.20;78.30
51801;DHT22;37855;53.204;6.568;2023-05-07T06:05:54;11.10;78.60
51801;DHT22;37855;53.204;6.568;2023-05-07T06:08:20;10.90;79.10
51801;DHT22;37855;53.204;6.568;2023-05-07T06:10:46;10.90;78.90
51801;DHT22;37855;53.204;6.568;2023-05-07T06:13:12;11.00;78.70
51801;DHT22;37855;53.204;6.568;2023-05-07T06:15:40;10.90;78.80
51801;DHT22;37855;53.204;6.568;2023-05-07T06:18:06;11.00;78.60
51801;DHT22;37855;53.204;6.568;2023-05-07T06:20:31;11.00;78.40
51801;DHT22;37855;53.204;6.568;2023-05-07T06:22:57;11.00;78.60
51801;DHT22;37855;53.204;6.568;2023-05-07T06:25:22;11.00;78.40
51801;DHT22;37855;53.204;6.568;2023-05-07T06:27:49;11.00;78.40
51801;DHT22;37855;53.204;6.568;2023-05-07T06:30:15;11.10;78.40
51801;DHT22;37855;53.204;6.568;2023-05-07T06:32:41;11.10;78.30
51801;DHT22;37855;53.204;6.568;2023-05-07T06:35:07;11.00;78.40
51801;DHT22;37855;53.204;6.568;2023-05-07T06:37:32;11.00;78.60
51801;DHT22;37855;53.204;6.568;2023-05-07T06:39:58;11.00;78.40
51801;DHT22;37855;53.204;6.568;2023-05-07T06:42:24;11.00;78.40
51801;DHT22;37855;53.204;6.568;2023-05-07T06:44:49;10.90;78.60
51801;DHT22;37855;53.204;6.568;2023-05-07T06:47:15;10.90;78.50
51801;DHT22;37855;53.204;6.568;2023-05-07T06:49:41;11.00;78.50
51801;DHT22;37855;53.204;6.568;2023-05-07T06:52:06;11.10;78.40
51801;DHT22;37855;53.204;6.568;2023-05-07T06:54:32;11.20;78.30
51801;DHT22;37855;53.204;6.568;2023-05-07T06:56:58;11.10;77.90
51801;DHT22;37855;53.204;6.568;2023-05-07T06:59:25;11.10;78.00
51801;DHT22;37855;53.204;6.568;2023-05-07T07:01:51;11.20;78.00
51801;DHT22;37855;53.204;6.568;2023-05-07T07:04:16;11.30;77.90
51801;DHT22;37855;53.204;6.568;2023-05-07T07:06:42;11.30;77.80
51801;DHT22;37855;53.204;6.568;2023-05-07T07:09:08;11.40;77.80
51801;DHT22;37855;53.204;6.568;2023-05-07T07:11:33;11.40;77.40
51801;DHT22;37855;53.204;6.568;2023-05-07T07:13:59;11.40;77.60
51801;DHT22;37855;53.204;6.568;2023-05-07T07:16:25;11.40;77.70
51801;DHT22;37855;53.204;6.568;2023-05-07T07:18:51;11.40;77.60
51801;DHT22;37855;53.204;6.568;2023-05-07T07:21:16;11.40;77.50
51801;DHT22;37855;53.204;6.568;2023-05-07T07:23:42;11.40;77.60
51801;DHT22;37855;53.204;6.568;2023-05-07T07:26:08;11.40;77.60
51801;DHT22;37855;53.204;6.568;2023-05-07T07:28:34;11.30;77.10
51801;DHT22;37855;53.204;6.568;2023-05-07T07:30:59;11.30;77.20
51801;DHT22;37855;53.204;6.568;2023-05-07T07:33:25;11.40;77.30
51801;DHT22;37855;53.204;6.568;2023-05-07T07:35:51;11.40;77.40
51801;DHT22;37855;53.204;6.568;2023-05-07T07:38:16;11.50;77.30
51801;DHT22;37855;53.204;6.568;2023-05-07T07:40:42;11.50;76.90
51801;DHT22;37855;53.204;6.568;2023-05-07T07:43:09;11.50;76.90
51801;DHT22;37855;53.204;6.568;2023-05-07T07:45:35;11.50;76.70
51801;DHT22;37855;53.204;6.568;2023-05-07T07:48:00;11.60;76.60
51801;DHT22;37855;53.204;6.568;2023-05-07T07:50:26;11.60;76.80
51801;DHT22;37855;53.204;6.568;2023-05-07T07:52:52;11.70;76.80
51801;DHT22;37855;53.204;6.568;2023-05-07T07:55:20;11.70;76.70
51801;DHT22;37855;53.204;6.568;2023-05-07T07:57:48;11.80;76.60
51801;DHT22;37855;53.204;6.568;2023-05-07T08:00:15;11.90;76.60
51801;DHT22;37855;53.204;6.568;2023-05-07T08:02:41;11.90;76.50
51801;DHT22;37855;53.204;6.568;2023-05-07T08:05:07;12.00;76.50
51801;DHT22;37855;53.204;6.568;2023-05-07T08:07:32;12.10;76.30
51801;DHT22;37855;53.204;6.568;2023-05-07T08:09:58;12.10;76.30
51801;DHT22;37855;53.204;6.568;2023-05-07T08:12:24;12.20;76.00
51801;DHT22;37855;53.204;6.568;2023-05-07T08:14:49;12.20;75.70
51801;DHT22;37855;53.204;6.568;2023-05-07T08:17:15;12.20;75.40
51801;DHT22;37855;53.204;6.568;2023-05-07T08:19:42;12.20;75.60
51801;DHT22;37855;53.204;6.568;2023-05-07T08:22:09;12.20;75.40
51801;DHT22;37855;53.204;6.568;2023-05-07T08:24:36;12.20;75.20
51801;DHT22;37855;53.204;6.568;2023-05-07T08:27:02;12.20;75.30
51801;DHT22;37855;53.204;6.568;2023-05-07T08:29:27;12.20;75.20
51801;DHT22;37855;53.204;6.568;2023-05-07T08:31:53;12.30;75.10
51801;DHT22;37855;53.204;6.568;2023-05-07T08:34:19;12.30;75.20
51801;DHT22;37855;53.204;6.568;2023-05-07T08:36:45;12.30;74.90
51801;DHT22;37855;53.204;6.568;2023-05-07T08:39:15;12.40;75.00
51801;DHT22;37855;53.204;6.568;2023-05-07T08:41:44;12.50;75.00
51801;DHT22;37855;53.204;6.568;2023-05-07T08:44:14;12.50;74.60
51801;DHT22;37855;53.204;6.568;2023-05-07T08:46:41;12.60;74.60
51801;DHT22;37855;53.204;6.568;2023-05-07T08:49:08;12.60;74.30
51801;DHT22;37855;53.204;6.568;2023-05-07T08:51:34;12.70;74.30
51801;DHT22;37855;53.204;6.568;2023-05-07T08:54:01;12.70;73.80
51801;DHT22;37855;53.204;6.568;2023-05-07T08:56:27;12.70;73.80
51801;DHT22;37855;53.204;6.568;2023-05-07T08:58:53;12.80;74.00
51801;DHT22;37855;53.204;6.568;2023-05-07T09:01:22;12.90;73.70
51801;DHT22;37855;53.204;6.568;2023-05-07T09:03:49;12.90;72.80
51801;DHT22;37855;53.204;6.568;2023-05-07T09:06:15;12.90;73.40
51801;DHT22;37855;53.204;6.568;2023-05-07T09:08:40;12.90;73.40
51801;DHT22;37855;53.204;6.568;2023-05-07T09:11:06;13.00;73.40
51801;DHT22;37855;53.204;6.568;2023-05-07T09:13:32;13.10;72.60
51801;DHT22;37855;53.204;6.568;2023-05-07T09:15:57;13.20;73.10
51801;DHT22;37855;53.204;6.568;2023-05-07T09:18:24;13.30;73.20
51801;DHT22;37855;53.204;6.568;2023-05-07T09:20:50;13.40;73.00
51801;DHT22;37855;53.204;6.568;2023-05-07T09:23:16;13.50;72.80
51801;DHT22;37855;53.204;6.568;2023-05-07T09:25:42;13.50;72.80
51801;DHT22;37855;53.204;6.568;2023-05-07T09:28:07;13.50;72.30
51801;DHT22;37855;53.204;6.568;2023-05-07T09:30:36;13.60;72.50
51801;DHT22;37855;53.204;6.568;2023-05-07T09:33:03;13.60;71.10
51801;DHT22;37855;53.204;6.568;2023-05-07T09:35:30;13.50;71.90
51801;DHT22;37855;53.204;6.568;2023-05-07T09:38:00;13.50;71.20
51801;DHT22;37855;53.204;6.568;2023-05-07T09:40:28;13.50;71.90
51801;DHT22;37855;53.204;6.568;2023-05-07T09:42:54;13.60;71.30
51801;DHT22;37855;53.204;6.568;2023-05-07T09:45:25;13.70;72.00
51801;DHT22;37855;53.204;6.568;2023-05-07T09:47:55;13.70;71.50
51801;DHT22;37855;53.204;6.568;2023-05-07T09:50:30;13.70;71.20
51801;DHT22;37855;53.204;6.568;2023-05-07T09:52:58;13.70;71.50
51801;DHT22;37855;53.204;6.568;2023-05-07T09:55:24;13.90;71.70
51801;DHT22;37855;53.204;6.568;2023-05-07T09:57:52;14.00;71.70
51801;DHT22;37855;53.204;6.568;2023-05-07T10:00:21;14.10;71.30
51801;DHT22;37855;53.204;6.568;2023-05-07T10:02:52;14.20;71.20
51801;DHT22;37855;53.204;6.568;2023-05-07T10:05:19;14.20;70.80
51801;DHT22;37855;53.204;6.568;2023-05-07T10:07:48;14.30;70.80
51801;DHT22;37855;53.204;6.568;2023-05-07T10:10:14;14.30;69.30
51801;DHT22;37855;53.204;6.568;2023-05-07T10:12:41;14.20;68.90
51801;DHT22;37855;53.204;6.568;2023-05-07T10:15:10;14.30;70.50
51801;DHT22;37855;53.204;6.568;2023-05-07T10:17:38;14.30;70.50
51801;DHT22;37855;53.204;6.568;2023-05-07T10:20:05;14.20;69.80
51801;DHT22;37855;53.204;6.568;2023-05-07T10:22:47;14.30;70.20
51801;DHT22;37855;53.204;6.568;2023-05-07T10:25:18;14.30;70.40
51801;DHT22;37855;53.204;6.568;2023-05-07T10:27:47;14.40;70.30
51801;DHT22;37855;53.204;6.568;2023-05-07T10:33:29;14.30;69.20
51801;DHT22;37855;53.204;6.568;2023-05-07T10:35:59;14.30;69.90
51801;DHT22;37855;53.204;6.568;2023-05-07T10:38:27;14.40;70.20
51801;DHT22;37855;53.204;6.568;2023-05-07T10:40:56;14.50;70.30
51801;DHT22;37855;53.204;6.568;2023-05-07T10:43:21;14.60;70.30
51801;DHT22;37855;53.204;6.568;2023-05-07T10:46:09;14.70;69.90
51801;DHT22;37855;53.204;6.568;2023-05-07T10:51:32;15.00;70.00
51801;DHT22;37855;53.204;6.568;2023-05-07T10:56:40;15.10;68.80
51801;DHT22;37855;53.204;6.568;2023-05-07T11:01:57;15.40;68.90
51801;DHT22;37855;53.204;6.568;2023-05-07T11:04:23;15.60;67.90
51801;DHT22;37855;53.204;6.568;2023-05-07T11:15:05;15.70;67.30
51801;DHT22;37855;53.204;6.568;2023-05-07T11:17:31;15.90;67.70
51801;DHT22;37855;53.204;6.568;2023-05-07T11:20:01;15.90;67.00
51801;DHT22;37855;53.204;6.568;2023-05-07T11:25:00;15.80;67.30
51801;DHT22;37855;53.204;6.568;2023-05-07T11:27:26;15.60;67.00
51801;DHT22;37855;53.204;6.568;2023-05-07T11:29:52;15.50;67.40
51801;DHT22;37855;53.204;6.568;2023-05-07T11:32:25;15.50;68.10
51801;DHT22;37855;53.204;6.568;2023-05-07T11:34:53;15.60;68.20
51801;DHT22;37855;53.204;6.568;2023-05-07T11:37:19;15.70;67.70
51801;DHT22;37855;53.204;6.568;2023-05-07T11:39:45;15.80;67.80
51801;DHT22;37855;53.204;6.568;2023-05-07T11:42:33;16.00;67.80
51801;DHT22;37855;53.204;6.568;2023-05-07T11:44:59;16.30;67.70
51801;DHT22;37855;53.204;6.568;2023-05-07T11:47:25;16.50;67.20
51801;DHT22;37855;53.204;6.568;2023-05-07T11:49:53;16.60;66.10
51801;DHT22;37855;53.204;6.568;2023-05-07T11:52:21;16.50;66.70
51801;DHT22;37855;53.204;6.568;2023-05-07T11:54:54;16.60;66.70
51801;DHT22;37855;53.204;6.568;2023-05-07T11:57:21;16.70;66.70
51801;DHT22;37855;53.204;6.568;2023-05-07T11:59:47;16.90;66.90
51801;DHT22;37855;53.204;6.568;2023-05-07T12:02:17;16.80;66.10
51801;DHT22;37855;53.204;6.568;2023-05-07T12:04:44;16.80;66.00
51801;DHT22;37855;53.204;6.568;2023-05-07T12:07:17;16.90;66.10
51801;DHT22;37855;53.204;6.568;2023-05-07T12:09:44;16.80;65.20
51801;DHT22;37855;53.204;6.568;2023-05-07T12:12:11;16.80;65.90
51801;DHT22;37855;53.204;6.568;2023-05-07T12:14:43;17.00;66.00
51801;DHT22;37855;53.204;6.568;2023-05-07T12:17:09;17.10;64.90
51801;DHT22;37855;53.204;6.568;2023-05-07T12:19:37;17.10;65.20
51801;DHT22;37855;53.204;6.568;2023-05-07T12:22:03;16.90;65.50
51801;DHT22;37855;53.204;6.568;2023-05-07T12:27:09;16.80;65.80
51801;DHT22;37855;53.204;6.568;2023-05-07T12:29:34;16.90;66.10
51801;DHT22;37855;53.204;6.568;2023-05-07T12:32:00;17.00;65.30
51801;DHT22;37855;53.204;6.568;2023-05-07T12:34:26;17.00;65.20
51801;DHT22;37855;53.204;6.568;2023-05-07T12:36:52;17.10;65.50
51801;DHT22;37855;53.204;6.568;2023-05-07T12:39:18;17.10;65.60
51801;DHT22;37855;53.204;6.568;2023-05-07T12:41:55;17.10;65.50
51801;DHT22;37855;53.204;6.568;2023-05-07T12:44:33;17.10;65.40
51801;DHT22;37855;53.204;6.568;2023-05-07T12:47:02;17.30;65.50
51801;DHT22;37855;53.204;6.568;2023-05-07T12:49:28;17.40;65.50
51801;DHT22;37855;53.204;6.568;2023-05-07T12:51:54;17.40;64.80
51801;DHT22;37855;53.204;6.568;2023-05-07T12:54:31;17.50;64.70
51801;DHT22;37855;53.204;6.568;2023-05-07T12:57:05;17.50;63.70
51801;DHT22;37855;53.204;6.568;2023-05-07T12:59:41;17.60;64.60
51801;DHT22;37855;53.204;6.568;2023-05-07T13:02:08;17.70;64.20
51801;DHT22;37855;53.204;6.568;2023-05-07T13:04:34;17.90;64.20
51801;DHT22;37855;53.204;6.568;2023-05-07T13:07:01;18.00;64.40
51801;DHT22;37855;53.204;6.568;2023-05-07T13:09:26;18.20;64.20
51801;DHT22;37855;53.204;6.568;2023-05-07T13:11:54;18.50;63.80
51801;DHT22;37855;53.204;6.568;2023-05-07T13:14:20;18.50;63.10
51801;DHT22;37855;53.204;6.568;2023-05-07T13:16:51;18.70;63.30
51801;DHT22;37855;53.204;6.568;2023-05-07T13:19:17;18.80;63.10
51801;DHT22;37855;53.204;6.568;2023-05-07T13:21:43;18.90;62.80
51801;DHT22;37855;53.204;6.568;2023-05-07T13:24:09;18.90;63.00
51801;DHT22;37855;53.204;6.568;2023-05-07T13:26:34;19.00;62.20
51801;DHT22;37855;53.204;6.568;2023-05-07T13:29:02;19.00;62.70
51801;DHT22;37855;53.204;6.568;2023-05-07T13:31:28;19.10;62.90
51801;DHT22;37855;53.204;6.568;2023-05-07T13:33:54;19.20;62.80
51801;DHT22;37855;53.204;6.568;2023-05-07T13:36:21;19.30;62.70
51801;DHT22;37855;53.204;6.568;2023-05-07T13:38:47;19.30;62.50
51801;DHT22;37855;53.204;6.568;2023-05-07T13:41:13;19.40;62.40
51801;DHT22;37855;53.204;6.568;2023-05-07T13:43:39;19.40;62.20
51801;DHT22;37855;53.204;6.568;2023-05-07T13:46:05;19.40;62.50
51801;DHT22;37855;53.204;6.568;2023-05-07T13:48:30;19.40;62.70
51801;DHT22;37855;53.204;6.568;2023-05-07T13:50:56;19.40;62.60
51801;DHT22;37855;53.204;6.568;2023-05-07T13:53:22;19.40;62.80
51801;DHT22;37855;53.204;6.568;2023-05-07T13:55:48;19.40;62.50
51801;DHT22;37855;53.204;6.568;2023-05-07T13:58:14;19.40;62.40
51801;DHT22;37855;53.204;6.568;2023-05-07T14:00:40;19.50;62.30
51801;DHT22;37855;53.204;6.568;2023-05-07T14:03:05;19.40;62.10
51801;DHT22;37855;53.204;6.568;2023-05-07T14:05:31;19.50;62.20
51801;DHT22;37855;53.204;6.568;2023-05-07T14:07:58;19.40;62.30
51801;DHT22;37855;53.204;6.568;2023-05-07T14:10:24;19.40;61.20
51801;DHT22;37855;53.204;6.568;2023-05-07T14:12:49;19.40;62.10
51801;DHT22;37855;53.204;6.568;2023-05-07T14:15:16;19.30;62.30
51801;DHT22;37855;53.204;6.568;2023-05-07T14:17:44;19.30;62.30
51801;DHT22;37855;53.204;6.568;2023-05-07T14:20:11;19.30;62.40
51801;DHT22;37855;53.204;6.568;2023-05-07T14:22:37;19.30;62.40
51801;DHT22;37855;53.204;6.568;2023-05-07T14:25:03;19.20;62.60
51801;DHT22;37855;53.204;6.568;2023-05-07T14:27:28;19.20;62.60
51801;DHT22;37855;53.204;6.568;2023-05-07T14:29:54;19.30;62.60
51801;DHT22;37855;53.204;6.568;2023-05-07T14:32:21;19.30;62.70
51801;DHT22;37855;53.204;6.568;2023-05-07T14:34:46;19.40;62.60
51801;DHT22;37855;53.204;6.568;2023-05-07T14:37:12;19.50;62.60
51801;DHT22;37855;53.204;6.568;2023-05-07T14:39:38;19.60;62.50
51801;DHT22;37855;53.204;6.568;2023-05-07T14:42:05;19.70;62.20
51801;DHT22;37855;53.204;6.568;2023-05-07T14:44:30;19.70;62.00
51801;DHT22;37855;53.204;6.568;2023-05-07T14:46:57;19.70;62.10
51801;DHT22;37855;53.204;6.568;2023-05-07T14:49:23;19.70;61.80
51801;DHT22;37855;53.204;6.568;2023-05-07T14:51:49;19.70;61.80
51801;DHT22;37855;53.204;6.568;2023-05-07T14:54:15;19.60;61.70
51801;DHT22;37855;53.204;6.568;2023-05-07T14:56:41;19.60;61.80
51801;DHT22;37855;53.204;6.568;2023-05-07T14:59:07;19.60;61.90
51801;DHT22;37855;53.204;6.568;2023-05-07T15:01:36;19.60;61.60
51801;DHT22;37855;53.204;6.568;2023-05-07T15:04:06;19.70;61.60
51801;DHT22;37855;53.204;6.568;2023-05-07T15:06:32;19.60;61.40
51801;DHT22;37855;53.204;6.568;2023-05-07T15:08:58;19.70;61.50
51801;DHT22;37855;53.204;6.568;2023-05-07T15:11:24;19.60;60.90
51801;DHT22;37855;53.204;6.568;2023-05-07T15:13:50;19.60;61.40
51801;DHT22;37855;53.204;6.568;2023-05-07T15:16:16;19.60;61.40
51801;DHT22;37855;53.204;6.568;2023-05-07T15:18:42;19.60;60.90
51801;DHT22;37855;53.204;6.568;2023-05-07T15:21:08;19.60;61.30
51801;DHT22;37855;53.204;6.568;2023-05-07T15:23:34;19.60;61.50
51801;DHT22;37855;53.204;6.568;2023-05-07T15:26:00;19.70;61.60
51801;DHT22;37855;53.204;6.568;2023-05-07T15:28:27;19.70;61.20
51801;DHT22;37855;53.204;6.568;2023-05-07T15:30:55;19.70;59.40
51801;DHT22;37855;53.204;6.568;2023-05-07T15:33:20;19.60;60.90
51801;DHT22;37855;53.204;6.568;2023-05-07T15:35:46;19.70;60.90
51801;DHT22;37855;53.204;6.568;2023-05-07T15:38:12;19.70;60.90
51801;DHT22;37855;53.204;6.568;2023-05-07T15:40:39;19.80;60.90
51801;DHT22;37855;53.204;6.568;2023-05-07T15:43:10;19.90;60.80
51801;DHT22;37855;53.204;6.568;2023-05-07T15:45:41;20.00;61.00
51801;DHT22;37855;53.204;6.568;2023-05-07T15:48:07;20.20;60.60
51801;DHT22;37855;53.204;6.568;2023-05-07T15:50:33;20.30;60.50
51801;DHT22;37855;53.204;6.568;2023-05-07T15:53:02;20.30;60.00